createdAt,value
2017-12-30T00:00:26.411Z,8.13
2017-12-30T00:02:53.998Z,6.80
2017-12-30T00:05:22.332Z,5.87
2017-12-30T00:07:49.917Z,7.70
2017-12-30T00:10:17.598Z,6.20
2017-12-30T00:12:45.925Z,7.47
2017-12-30T00:15:13.520Z,7.50
2017-12-30T00:17:41.077Z,6.87
2017-12-30T00:20:08.701Z,7.10
2017-12-30T00:22:37.517Z,6.63
2017-12-30T00:25:05.069Z,5.57
2017-12-30T00:27:32.655Z,4.83
2017-12-30T00:30:00.217Z,5.30
2017-12-30T00:32:27.805Z,4.30
2017-12-30T00:34:55.371Z,5.13
2017-12-30T00:37:22.968Z,3.73
2017-12-30T00:39:50.530Z,4.00
2017-12-30T00:42:18.106Z,3.57
2017-12-30T00:44:46.193Z,4.10
2017-12-30T00:47:13.780Z,4.17
2017-12-30T00:49:41.337Z,3.30
2017-12-30T00:52:08.920Z,4.13
2017-12-30T00:54:36.504Z,2.40
2017-12-30T00:57:04.125Z,2.77
2017-12-30T00:59:31.692Z,2.60
2017-12-30T01:01:59.295Z,3.80
2017-12-30T01:04:26.936Z,3.57
2017-12-30T01:06:54.480Z,3.23
2017-12-30T01:09:22.077Z,4.00
2017-12-30T01:11:49.706Z,2.93
2017-12-30T01:14:17.273Z,3.47
2017-12-30T01:16:44.857Z,2.90
2017-12-30T01:19:12.398Z,3.00
2017-12-30T01:21:39.969Z,3.17
2017-12-30T01:24:07.594Z,2.97
2017-12-30T01:26:35.946Z,1.90
2017-12-30T01:29:03.532Z,2.43
2017-12-30T01:31:31.865Z,2.67
2017-12-30T01:34:00.048Z,3.70
2017-12-30T01:36:27.620Z,2.43
2017-12-30T01:38:55.182Z,2.80
2017-12-30T01:41:22.761Z,3.03
2017-12-30T01:43:51.120Z,3.10
2017-12-30T01:46:18.693Z,2.80
2017-12-30T01:48:58.247Z,4.00
2017-12-30T01:51:26.602Z,3.00
2017-12-30T01:53:54.189Z,2.90
2017-12-30T01:56:22.796Z,2.93
2017-12-30T01:58:50.393Z,3.13
2017-12-30T02:01:17.952Z,4.17
2017-12-30T02:03:45.632Z,1.80
2017-12-30T02:06:13.509Z,2.80
2017-12-30T02:08:41.836Z,3.70
2017-12-30T02:11:09.409Z,2.70
2017-12-30T02:13:37.066Z,2.90
2017-12-30T02:16:04.626Z,2.77
2017-12-30T02:18:32.253Z,3.30
2017-12-30T02:20:59.821Z,3.10
2017-12-30T02:23:27.440Z,3.83
2017-12-30T02:25:54.983Z,2.77
2017-12-30T02:28:22.570Z,2.70
2017-12-30T02:30:50.188Z,3.47
2017-12-30T02:33:17.785Z,3.07
2017-12-30T02:35:45.356Z,3.83
2017-12-30T02:38:12.944Z,3.40
2017-12-30T02:40:40.538Z,3.80
2017-12-30T02:43:08.860Z,3.20
2017-12-30T02:45:36.427Z,4.10
2017-12-30T02:48:04.749Z,3.80
2017-12-30T02:50:32.812Z,5.10
2017-12-30T02:53:00.376Z,3.87
2017-12-30T02:55:27.958Z,4.27
2017-12-30T02:57:55.516Z,3.70
2017-12-30T03:00:23.089Z,3.20
2017-12-30T03:02:50.690Z,3.30
2017-12-30T03:05:19.073Z,5.20
2017-12-30T03:07:47.441Z,3.50
2017-12-30T03:10:15.789Z,3.40
2017-12-30T03:12:43.354Z,3.87
2017-12-30T03:15:10.933Z,4.40
2017-12-30T03:17:38.528Z,4.10
2017-12-30T03:20:06.100Z,3.93
2017-12-30T03:22:33.693Z,3.93
2017-12-30T03:25:01.338Z,3.80
2017-12-30T03:27:28.922Z,3.77
2017-12-30T03:29:56.484Z,3.23
2017-12-30T03:32:24.148Z,3.90
2017-12-30T03:34:51.713Z,4.20
2017-12-30T03:37:19.282Z,3.67
2017-12-30T03:39:46.891Z,3.77
2017-12-30T03:42:14.438Z,3.80
2017-12-30T03:44:41.996Z,3.40
2017-12-30T03:47:09.568Z,4.40
2017-12-30T03:49:37.163Z,3.67
2017-12-30T03:52:04.718Z,3.67
2017-12-30T03:54:32.306Z,3.23
2017-12-30T03:56:59.894Z,3.00
2017-12-30T03:59:27.441Z,3.57
2017-12-30T04:01:55.797Z,3.77
2017-12-30T04:04:23.354Z,3.17
2017-12-30T04:06:50.962Z,3.20
2017-12-30T04:09:18.544Z,4.07
2017-12-30T04:11:46.164Z,2.70
2017-12-30T04:14:14.491Z,3.40
2017-12-30T04:16:42.833Z,3.23
2017-12-30T04:19:11.195Z,3.00
2017-12-30T04:21:39.013Z,3.07
2017-12-30T04:24:06.560Z,3.80
2017-12-30T04:26:34.142Z,3.23
2017-12-30T04:29:01.734Z,2.90
2017-12-30T04:31:29.313Z,3.60
2017-12-30T04:33:57.625Z,2.77
2017-12-30T04:36:25.204Z,2.83
2017-12-30T04:38:52.753Z,3.30
2017-12-30T04:41:20.321Z,3.57
2017-12-30T04:43:47.866Z,3.93
2017-12-30T04:46:15.453Z,2.90
2017-12-30T04:48:43.076Z,2.57
2017-12-30T04:51:10.656Z,3.10
2017-12-30T04:53:38.217Z,3.30
2017-12-30T04:56:05.800Z,2.70
2017-12-30T04:58:33.357Z,3.17
2017-12-30T05:01:00.908Z,3.63
2017-12-30T05:03:28.514Z,3.70
2017-12-30T05:05:56.908Z,3.50
2017-12-30T05:08:25.457Z,2.60
2017-12-30T05:10:53.593Z,3.53
2017-12-30T05:13:21.429Z,2.63
2017-12-30T05:15:48.972Z,2.93
2017-12-30T05:18:16.611Z,2.97
2017-12-30T05:20:44.342Z,2.90
2017-12-30T05:23:11.913Z,2.57
2017-12-30T05:25:39.547Z,3.30
2017-12-30T05:28:07.865Z,3.13
2017-12-30T05:30:35.428Z,2.90
2017-12-30T05:33:03.280Z,2.43
2017-12-30T05:35:30.845Z,2.93
2017-12-30T05:37:58.425Z,2.80
2017-12-30T05:40:25.962Z,2.80
2017-12-30T05:42:53.544Z,2.90
2017-12-30T05:45:21.112Z,3.33
2017-12-30T05:47:48.685Z,3.00
2017-12-30T05:50:16.247Z,3.23
2017-12-30T05:52:43.806Z,2.60
2017-12-30T05:55:11.361Z,3.70
2017-12-30T05:57:38.960Z,3.70
2017-12-30T06:00:06.524Z,4.40
2017-12-30T06:02:34.101Z,3.10
2017-12-30T06:05:01.671Z,3.20
2017-12-30T06:07:29.261Z,2.70
2017-12-30T06:09:56.825Z,2.90
2017-12-30T06:12:24.385Z,2.23
2017-12-30T06:14:52.036Z,3.27
2017-12-30T06:17:19.591Z,2.67
2017-12-30T06:19:47.161Z,4.00
2017-12-30T06:22:14.721Z,3.37
2017-12-30T06:24:42.297Z,2.90
2017-12-30T06:27:09.901Z,3.30
2017-12-30T06:29:37.461Z,3.30
2017-12-30T06:32:05.029Z,3.30
2017-12-30T06:34:33.315Z,3.47
2017-12-30T06:37:00.874Z,3.53
2017-12-30T06:39:28.552Z,3.23
2017-12-30T06:41:56.125Z,3.00
2017-12-30T06:44:23.773Z,3.40
2017-12-30T06:46:51.379Z,3.70
2017-12-30T06:49:18.928Z,3.03
2017-12-30T06:51:46.517Z,2.83
2017-12-30T06:54:14.201Z,3.23
2017-12-30T06:56:41.760Z,3.40
2017-12-30T06:59:09.324Z,4.13
2017-12-30T07:01:36.895Z,3.00
2017-12-30T07:04:04.456Z,2.60
2017-12-30T07:06:32.116Z,2.30
2017-12-30T07:08:59.665Z,2.67
2017-12-30T07:11:27.241Z,2.23
2017-12-30T07:23:40.589Z,2.43
2017-12-30T07:26:08.908Z,3.33
2017-12-30T07:28:36.512Z,2.53
2017-12-30T07:31:04.197Z,1.87
2017-12-30T07:33:32.606Z,2.20
2017-12-30T07:36:00.169Z,2.47
2017-12-30T07:38:28.505Z,2.60
2017-12-30T07:40:56.845Z,2.57
2017-12-30T07:43:24.495Z,2.30
2017-12-30T07:45:52.059Z,2.27
2017-12-30T07:48:19.620Z,1.60
2017-12-30T07:50:47.220Z,2.17
2017-12-30T07:53:14.792Z,1.40
2017-12-30T07:55:43.205Z,2.90
2017-12-30T07:58:10.736Z,1.53
2017-12-30T08:00:39.076Z,1.60
2017-12-30T08:03:06.644Z,1.20
2017-12-30T08:05:34.229Z,1.70
2017-12-30T08:08:01.838Z,1.30
2017-12-30T08:10:29.460Z,1.20
2017-12-30T08:12:57.791Z,1.70
2017-12-30T08:15:26.025Z,1.20
2017-12-30T08:17:54.940Z,1.40
2017-12-30T08:20:22.597Z,0.90
2017-12-30T08:22:50.181Z,1.20
2017-12-30T08:25:18.517Z,0.90
2017-12-30T08:27:46.865Z,1.00
2017-12-30T08:30:14.438Z,1.10
2017-12-30T08:32:42.046Z,0.90
2017-12-30T08:35:09.665Z,1.20
2017-12-30T08:37:37.712Z,0.80
2017-12-30T08:40:05.270Z,0.80
2017-12-30T08:42:32.851Z,1.00
2017-12-30T08:45:00.422Z,0.70
2017-12-30T08:47:28.117Z,0.90
2017-12-30T08:49:55.675Z,0.83
2017-12-30T08:52:23.221Z,1.00
2017-12-30T08:54:51.568Z,0.87
2017-12-30T08:57:19.113Z,0.90
2017-12-30T08:59:47.470Z,1.10
2017-12-30T09:02:15.013Z,1.00
2017-12-30T09:04:42.620Z,0.80
2017-12-30T09:07:10.656Z,0.80
2017-12-30T09:09:38.376Z,1.10
2017-12-30T09:12:05.921Z,1.00
2017-12-30T09:14:33.529Z,1.00
2017-12-30T09:17:01.120Z,0.90
2017-12-30T09:19:28.713Z,0.90
2017-12-30T09:21:56.279Z,1.10
2017-12-30T09:24:23.879Z,0.90
2017-12-30T09:26:51.709Z,1.03
2017-12-30T09:29:19.250Z,1.07
2017-12-30T09:31:46.846Z,0.90
2017-12-30T09:34:15.161Z,0.70
2017-12-30T09:36:42.755Z,1.30
2017-12-30T09:39:11.149Z,1.00
2017-12-30T09:41:38.736Z,1.00
2017-12-30T09:44:06.333Z,0.90
2017-12-30T09:46:33.932Z,1.20
2017-12-30T09:49:01.485Z,1.87
2017-12-30T09:51:29.997Z,1.40
2017-12-30T09:53:57.586Z,1.53
2017-12-30T09:56:25.173Z,0.93
2017-12-30T09:58:52.723Z,0.90
2017-12-30T10:01:20.313Z,1.10
2017-12-30T10:03:48.340Z,1.20
2017-12-30T10:06:16.497Z,0.87
2017-12-30T10:08:44.062Z,0.90
2017-12-30T10:11:11.639Z,1.00
2017-12-30T10:13:39.200Z,0.90
2017-12-30T10:16:06.767Z,0.87
2017-12-30T10:18:34.345Z,0.90
2017-12-30T10:21:01.917Z,1.00
2017-12-30T10:23:29.833Z,0.90
2017-12-30T10:25:57.379Z,1.00
2017-12-30T10:28:25.699Z,0.80
2017-12-30T10:30:54.665Z,0.90
2017-12-30T10:33:22.215Z,0.97
2017-12-30T10:35:50.533Z,1.03
2017-12-30T10:38:23.552Z,1.03
2017-12-30T10:40:51.168Z,1.20
2017-12-30T10:43:18.753Z,0.80
2017-12-30T10:45:46.335Z,1.10
2017-12-30T10:48:13.937Z,0.80
2017-12-30T10:50:41.617Z,0.80
2017-12-30T10:53:25.541Z,1.77
2017-12-30T10:55:53.450Z,1.13
2017-12-30T10:58:21.041Z,0.70
2017-12-30T11:00:55.041Z,1.00
2017-12-30T11:03:22.615Z,0.80
2017-12-30T11:05:50.196Z,1.13
2017-12-30T11:08:18.540Z,1.00
2017-12-30T11:10:46.255Z,1.17
2017-12-30T11:13:13.824Z,1.00
2017-12-30T11:18:15.744Z,1.10
2017-12-30T11:20:44.832Z,1.47
2017-12-30T11:23:16.155Z,1.90
2017-12-30T11:25:43.749Z,2.70
2017-12-30T11:28:12.285Z,2.13
2017-12-30T11:30:39.838Z,2.20
2017-12-30T11:33:07.657Z,2.27
2017-12-30T11:35:35.229Z,1.97
2017-12-30T11:38:02.809Z,1.90
2017-12-30T11:40:31.181Z,2.10
2017-12-30T11:42:59.565Z,3.17
2017-12-30T11:45:27.924Z,2.70
2017-12-30T11:47:55.517Z,3.17
2017-12-30T11:50:23.865Z,4.10
2017-12-30T11:52:51.458Z,4.03
2017-12-30T11:55:19.124Z,4.90
2017-12-30T11:57:47.520Z,4.80
2017-12-30T12:00:15.114Z,4.40
2017-12-30T12:02:42.737Z,5.67
2017-12-30T12:05:10.344Z,5.73
2017-12-30T12:07:38.030Z,5.40
2017-12-30T12:10:06.415Z,5.20
2017-12-30T12:12:34.786Z,6.60
2017-12-30T12:15:02.350Z,5.73
2017-12-30T12:17:29.961Z,7.13
2017-12-30T12:19:57.549Z,5.47
2017-12-30T12:22:26.064Z,6.73
2017-12-30T12:24:53.637Z,7.53
2017-12-30T12:27:21.211Z,7.53
2017-12-30T12:29:48.812Z,7.30
2017-12-30T12:32:16.402Z,6.67
2017-12-30T12:34:44.841Z,5.30
2017-12-30T12:37:12.448Z,6.90
2017-12-30T12:39:40.041Z,6.50
2017-12-30T12:42:07.772Z,5.80
2017-12-30T12:44:35.348Z,6.50
2017-12-30T12:47:03.741Z,6.40
2017-12-30T12:49:31.625Z,5.80
2017-12-30T12:52:00.921Z,6.30
2017-12-30T12:54:28.582Z,6.77
2017-12-30T12:56:56.152Z,4.17
2017-12-30T12:59:23.749Z,5.47
2017-12-30T13:01:51.380Z,5.27
2017-12-30T13:04:19.889Z,4.27
2017-12-30T13:06:47.472Z,6.80
2017-12-30T13:09:15.797Z,6.70
2017-12-30T13:11:43.393Z,7.13
2017-12-30T13:14:10.987Z,6.77
2017-12-30T13:16:39.394Z,6.20
2017-12-30T13:19:06.973Z,7.00
2017-12-30T13:21:34.569Z,5.87
2017-12-30T13:24:02.131Z,7.00
2017-12-30T13:26:33.256Z,5.60
2017-12-30T13:28:57.358Z,6.93
2017-12-30T13:31:25.704Z,7.07
2017-12-30T13:33:53.282Z,7.87
2017-12-30T13:36:21.623Z,5.90
2017-12-30T13:38:49.216Z,7.10
2017-12-30T13:41:16.782Z,6.77
2017-12-30T13:43:44.357Z,4.50
2017-12-30T13:46:12.693Z,6.37
2017-12-30T13:48:40.272Z,8.33
2017-12-30T13:51:07.851Z,6.97
2017-12-30T13:53:35.461Z,7.70
2017-12-30T13:56:03.817Z,7.03
2017-12-30T13:58:32.173Z,7.50
2017-12-30T14:00:59.740Z,8.50
2017-12-30T14:03:28.138Z,8.10
2017-12-30T14:05:55.778Z,7.63
2017-12-30T14:08:24.125Z,8.87
2017-12-30T14:10:51.966Z,8.10
2017-12-30T14:13:19.560Z,8.90
2017-12-30T14:15:47.180Z,9.30
2017-12-30T14:18:14.728Z,9.30
2017-12-30T14:20:42.317Z,8.23
2017-12-30T14:23:09.884Z,8.70
2017-12-30T14:25:38.243Z,9.70
2017-12-30T14:28:06.569Z,7.67
2017-12-30T14:30:34.191Z,10.00
2017-12-30T14:33:01.772Z,9.67
2017-12-30T14:35:29.382Z,10.43
2017-12-30T14:37:57.733Z,8.83
2017-12-30T14:40:25.312Z,7.30
2017-12-30T14:42:53.710Z,8.43
2017-12-30T14:45:22.078Z,9.57
2017-12-30T14:47:49.873Z,7.97
2017-12-30T14:50:18.214Z,7.80
2017-12-30T14:52:45.789Z,6.07
2017-12-30T14:55:13.823Z,8.37
2017-12-30T14:57:41.416Z,8.80
2017-12-30T15:00:09.017Z,8.80
2017-12-30T15:02:36.619Z,8.03
2017-12-30T15:05:04.182Z,7.00
2017-12-30T15:07:31.833Z,6.20
2017-12-30T15:09:59.439Z,9.10
2017-12-30T15:12:27.028Z,5.80
2017-12-30T15:14:54.594Z,6.67
2017-12-30T15:17:22.189Z,6.93
2017-12-30T15:19:49.769Z,7.10
2017-12-30T15:22:18.268Z,7.80
2017-12-30T15:24:46.625Z,7.53
2017-12-30T15:27:14.945Z,6.13
2017-12-30T15:29:42.629Z,8.50
2017-12-30T15:32:10.222Z,8.93
2017-12-30T15:34:37.820Z,7.43
2017-12-30T15:37:05.374Z,8.00
2017-12-30T15:39:32.992Z,8.20
2017-12-30T15:42:00.553Z,7.40
2017-12-30T15:44:28.133Z,6.97
2017-12-30T15:46:55.729Z,7.77
2017-12-30T15:49:23.301Z,8.30
2017-12-30T15:51:51.030Z,8.80
2017-12-30T15:54:19.388Z,9.50
2017-12-30T15:56:46.964Z,8.40
2017-12-30T15:59:16.061Z,8.27
2017-12-30T16:01:44.397Z,7.63
2017-12-30T16:04:11.973Z,8.43
2017-12-30T16:06:39.574Z,7.93
2017-12-30T16:09:07.142Z,6.57
2017-12-30T16:11:35.501Z,6.70
2017-12-30T16:14:03.857Z,6.80
2017-12-30T16:16:31.458Z,8.07
2017-12-30T16:19:12.473Z,7.13
2017-12-30T16:21:40.023Z,5.97
2017-12-30T16:24:07.625Z,6.40
2017-12-30T16:26:35.194Z,6.80
2017-12-30T16:29:02.803Z,6.50
2017-12-30T16:31:32.981Z,6.50
2017-12-30T16:34:16.866Z,7.10
2017-12-30T16:36:44.429Z,7.63
2017-12-30T16:39:12.038Z,5.57
2017-12-30T16:41:39.609Z,5.50
2017-12-30T16:44:08.020Z,7.73
2017-12-30T16:46:35.608Z,6.57
2017-12-30T16:49:06.791Z,6.50
2017-12-30T16:51:34.432Z,6.33
2017-12-30T16:54:02.001Z,6.27
2017-12-30T16:56:29.583Z,6.50
2017-12-30T16:58:57.913Z,6.93
2017-12-30T17:01:25.509Z,6.10
2017-12-30T17:03:53.100Z,4.63
2017-12-30T17:06:20.856Z,6.33
2017-12-30T17:08:49.172Z,7.40
2017-12-30T17:11:16.752Z,6.23
2017-12-30T17:13:44.329Z,6.63
2017-12-30T17:16:11.923Z,7.97
2017-12-30T17:18:39.527Z,6.47
2017-12-30T17:21:07.113Z,5.40
2017-12-30T17:23:34.961Z,5.33
2017-12-30T17:26:02.528Z,6.93
2017-12-30T17:28:30.122Z,5.83
2017-12-30T17:30:58.454Z,7.20
2017-12-30T17:33:26.100Z,7.00
2017-12-30T17:35:53.682Z,7.73
2017-12-30T17:38:32.093Z,7.77
2017-12-30T17:40:59.676Z,6.50
2017-12-30T17:43:27.366Z,7.60
2017-12-30T17:45:55.726Z,6.13
2017-12-30T17:48:23.312Z,8.80
2017-12-30T17:50:51.672Z,7.03
2017-12-30T17:53:19.248Z,7.53
2017-12-30T17:55:47.589Z,7.77
2017-12-30T17:58:15.158Z,7.63
2017-12-30T18:00:42.760Z,6.90
2017-12-30T18:03:10.360Z,6.70
2017-12-30T18:05:37.983Z,7.33
2017-12-30T18:08:06.345Z,7.70
2017-12-30T18:10:34.772Z,7.73
2017-12-30T18:13:02.359Z,6.07
2017-12-30T18:15:29.956Z,6.30
2017-12-30T18:17:58.335Z,6.87
2017-12-30T18:20:26.721Z,5.47
2017-12-30T18:22:55.049Z,5.70
2017-12-30T18:25:24.243Z,6.67
2017-12-30T18:27:58.166Z,7.10
2017-12-30T18:30:25.709Z,6.40
2017-12-30T18:32:53.299Z,5.23
2017-12-30T18:35:20.921Z,6.80
2017-12-30T18:37:49.194Z,5.73
2017-12-30T18:40:16.806Z,5.83
2017-12-30T18:42:44.381Z,7.50
2017-12-30T18:45:12.737Z,23.03
2017-12-30T18:47:40.350Z,6.87
2017-12-30T18:50:12.310Z,6.33
2017-12-30T18:52:39.890Z,5.43
2017-12-30T18:55:07.465Z,5.90
2017-12-30T18:57:35.067Z,6.53
2017-12-30T19:00:03.402Z,5.40
2017-12-30T19:02:31.024Z,5.00
2017-12-30T19:04:59.392Z,5.63
2017-12-30T19:07:28.476Z,6.13
2017-12-30T19:09:57.171Z,6.20
2017-12-30T19:12:25.513Z,5.70
2017-12-30T19:14:53.113Z,5.83
2017-12-30T19:17:21.472Z,4.60
2017-12-30T19:19:49.042Z,7.80
2017-12-30T19:22:16.634Z,6.80
2017-12-30T19:24:44.222Z,6.27
2017-12-30T19:27:11.830Z,5.70
2017-12-30T19:29:39.396Z,5.10
2017-12-30T19:32:07.858Z,7.27
2017-12-30T19:34:36.316Z,5.30
2017-12-30T19:37:03.919Z,4.30
2017-12-30T19:39:32.256Z,5.20
2017-12-30T19:42:00.033Z,4.80
2017-12-30T19:44:27.619Z,6.10
2017-12-30T19:46:58.762Z,5.10
2017-12-30T19:49:27.279Z,5.67
2017-12-30T19:51:54.871Z,5.70
2017-12-30T19:54:23.193Z,4.93
2017-12-30T19:56:51.608Z,5.43
2017-12-30T19:59:19.351Z,5.67
2017-12-30T20:01:47.844Z,5.20
2017-12-30T20:04:15.442Z,4.50
2017-12-30T20:06:43.538Z,5.53
2017-12-30T20:09:11.225Z,5.90
2017-12-30T20:11:39.570Z,7.07
2017-12-30T20:14:07.287Z,7.93
2017-12-30T20:16:35.990Z,6.30
2017-12-30T20:19:04.302Z,5.40
2017-12-30T20:21:31.880Z,5.87
2017-12-30T20:23:59.481Z,6.60
2017-12-30T20:26:27.064Z,6.60
2017-12-30T20:28:54.640Z,7.47
2017-12-30T20:31:22.223Z,5.70
2017-12-30T20:33:50.769Z,6.27
2017-12-30T20:36:28.162Z,5.77
2017-12-30T20:38:56.822Z,5.53
2017-12-30T20:41:25.065Z,5.93
2017-12-30T20:46:27.901Z,5.90
2017-12-30T20:48:56.398Z,6.20
2017-12-30T20:51:24.033Z,6.10
2017-12-30T20:53:51.612Z,6.00
2017-12-30T20:56:19.642Z,4.97
2017-12-30T20:58:49.793Z,6.30
2017-12-30T21:01:26.277Z,6.13
2017-12-30T21:03:53.989Z,6.90
2017-12-30T21:06:24.241Z,5.83
2017-12-30T21:09:02.759Z,6.77
2017-12-30T21:11:31.779Z,5.90
2017-12-30T21:13:59.384Z,6.10
2017-12-30T21:16:27.622Z,7.80
2017-12-30T21:18:55.909Z,7.00
2017-12-30T21:21:23.615Z,8.60
2017-12-30T21:23:51.973Z,7.40
2017-12-30T21:26:19.578Z,8.53
2017-12-30T21:28:47.153Z,7.13
2017-12-30T21:31:16.055Z,6.77
2017-12-30T21:33:44.097Z,6.57
2017-12-30T21:36:11.749Z,7.70
2017-12-30T21:38:40.133Z,6.77
2017-12-30T21:41:08.921Z,7.70
2017-12-30T21:43:37.401Z,6.40
2017-12-30T21:46:05.784Z,7.10
2017-12-30T21:48:34.125Z,5.00
2017-12-30T21:51:01.808Z,7.07
2017-12-30T21:53:29.440Z,6.70
2017-12-30T21:55:57.039Z,5.53
2017-12-30T21:58:24.751Z,7.03
2017-12-30T22:00:52.490Z,6.10
2017-12-30T22:03:20.128Z,6.93
2017-12-30T22:05:48.517Z,7.43
2017-12-30T22:08:16.861Z,6.00
2017-12-30T22:10:44.460Z,7.20
2017-12-30T22:13:12.817Z,7.90
2017-12-30T22:15:41.349Z,8.70
2017-12-30T22:18:09.046Z,9.03
2017-12-30T22:20:36.656Z,6.77
2017-12-30T22:23:05.833Z,6.17
2017-12-30T22:25:33.654Z,6.20
2017-12-30T22:28:01.312Z,5.80
2017-12-30T22:30:28.881Z,6.20
2017-12-30T22:32:56.493Z,6.67
2017-12-30T22:35:24.835Z,7.10
2017-12-30T22:37:53.193Z,6.60
2017-12-30T22:40:20.766Z,8.80
2017-12-30T22:42:48.435Z,6.93
2017-12-30T22:45:16.019Z,7.53
2017-12-30T22:47:43.608Z,9.20
2017-12-30T22:50:11.211Z,7.67
2017-12-30T22:52:38.795Z,8.17
2017-12-30T22:55:06.407Z,8.47
2017-12-30T22:57:34.090Z,8.63
2017-12-30T23:00:01.770Z,9.70
2017-12-30T23:02:29.427Z,8.00
2017-12-30T23:04:57.010Z,8.60
2017-12-30T23:07:24.607Z,7.30
2017-12-30T23:09:52.195Z,7.93
2017-12-30T23:12:19.786Z,8.23
2017-12-30T23:14:47.366Z,7.67
2017-12-30T23:17:15.055Z,7.40
2017-12-30T23:19:42.665Z,7.53
2017-12-30T23:22:10.259Z,8.10
2017-12-30T23:24:38.608Z,9.70
2017-12-30T23:27:06.209Z,7.80
2017-12-30T23:29:34.601Z,8.90
2017-12-30T23:32:02.185Z,8.90
2017-12-30T23:34:29.767Z,8.00
2017-12-30T23:36:57.865Z,8.17
2017-12-30T23:39:26.242Z,8.47
2017-12-30T23:41:53.804Z,8.67
2017-12-30T23:44:22.424Z,11.33
2017-12-30T23:46:50.035Z,10.50
2017-12-30T23:49:18.605Z,9.47
2017-12-30T23:51:46.197Z,8.53
2017-12-30T23:54:13.768Z,8.83
2017-12-30T23:56:45.272Z,8.63
2017-12-30T23:59:12.873Z,8.73
